Aviation Digital Data Service (ADDS)

Output produced by METARs form (0242 UTC 22 July 2017)
found at http://www.aviationweather.gov/adds/metars/
 
LIEA 220150Z 04002KT 9999 FEW015 23/21 Q1013
TAF LIEA 212300Z 2200/2224 VRB05KT CAVOK 
     BECMG 2208/2210 28010KT
       
TAF LIBA 211700Z 2118/2203 09008KT CAVOK 
     BECMG 2120/2122 24005KT
       
TAF LIPA 211700Z 2118/2203 04005KT 9999 SCT050
       
LIME 220220Z 04004KT 010V070 9999 FEW045 BKN080 21/16 Q1013 NOSIG
TAF LIME 212300Z 2200/2224 VRB05KT 9999 SCT050 
     TEMPO 2200/2202 4000 TSRA 
     TEMPO 2221/2224 4000 TSRA
       
LIPE 220220Z 25006KT CAVOK 24/15 Q1013
TAF LIPE 212300Z 2200/2224 VRB05KT CAVOK
       
LIPB 212050Z VRB02KT 9999 FEW050 SCT120 19/18 Q1014 RETS
TAF AMD LIPB 211844Z 2118/2218 VRB05KT 9999 SCT040 
     TEMPO 2118/2121 TSRA
       
TAF LIMN 211700Z 2118/2203 24005KT 9999 FEW040 
     TEMPO 2118/2124 4000 TSRA FEW020CB BKN030
       
LIRN 220220Z VRB02KT CAVOK 24/16 Q1015 NOSIG
TAF LIRN 212300Z 2200/2224 VRB05KT CAVOK 
     BECMG 2208/2210 22010KT 
     BECMG 2218/2220 VRB05KT
       
LIBR 220145Z 21006KT CAVOK 25/24 Q1014 NOSIG RMK SKC VIS MIN 9999 WIND THR13 /////KT WIND THR31 00000KT BLU
TAF LIBR 212300Z 2200/2224 20006KT CAVOK 
     BECMG 2208/2210 15012KT
       
LICC 220220Z 23006KT CAVOK 23/14 Q1014
TAF LICC 212300Z 2200/2224 26007KT CAVOK 
     TEMPO 2200/2205 4000 BR 
     BECMG 2208/2210 08012KT 
     BECMG 2218/2220 VRB05KT
       
LIPC 220155Z 31007KT CAVOK 24/19 Q1011 RMK FEW FEW090 VIS MIN 9999 WIND THR11 31005KT WIND THR29 30007KT BLU
TAF LIPC 220200Z 2203/2212 24005KT 9999 FEW030
       
LIRA 220220Z 16007KT CAVOK 26/09 Q1014
TAF LIRA 212300Z 2200/2224 VRB05KT 9999 FEW025 
     BECMG 2208/2210 20010KT 
     BECMG 2218/2220 VRB05KT
       
LIED 220155Z 35004KT 9000 FEW000 26/24 Q1011 RMK FEW VIS MIN 9000 WIND THR35 33005KT WIND THR17 34004KT BLU
TAF LIED 220200Z 2203/2212 33005KT CAVOK
       
LIEE 220220Z 32007KT 9000 FEW008 24/23 Q1011
TAF LIEE 212300Z 2200/2224 33008KT 9999 FEW020 
     BECMG 2208/2210 15012KT 
     BECMG 2218/2220 VRB05KT
       
LIPY 220150Z 14003KT 110V190 CAVOK 23/16 Q1011
TAF LIPY 212300Z 2200/2224 VRB05KT CAVOK 
     BECMG 2208/2210 08010KT 
     BECMG 2216/2219 VRB05KT
       
LIRF 220220Z 13007KT CAVOK 24/17 Q1014 NOSIG
TAF LIRF 212300Z 2200/2306 20012KT CAVOK 
     BECMG 2118/2120 14008KT 
     BECMG 2206/2208 20012KT 
     BECMG 2218/2220 VRB05KT
       
LIMJ 220220Z 01003KT 330V050 9999 FEW020 BKN045 22/20 Q1013
TAF LIMJ 212300Z 2200/2224 VRB05KT 9999 SCT025 
     TEMPO 2200/2204 4000 TSRA
       
LIPL 220155Z /////KT 9999 SCT070 22/21 Q1011 RMK SCT VIS MIN 9999 WIND THR31 01002KT BLU
TAF LIPL 220200Z 2203/2212 28005KT 9999 SCT050
       
LIBV 220155Z VRB01KT CAVOK 22/12 Q1014 RMK SKC VIS MIN 9999 WIND THR32 16006KT WIND THR14 19002KT BLU
TAF LIBV 220200Z 2203/2212 16006KT CAVOK 
     BECMG 2206/2209 16010KT
       
LIRM 220155Z 03002KT CAVOK 20/19 Q1014 RMK SKC VIS MIN 9999 WIND THR06 02002KT BLU
TAF LIRM 220200Z 2203/2212 VRB03KT CAVOK 
     BECMG 2208/2210 25007KT
       
LIRS 220155Z 14005KT CAVOK 25/23 Q1013 RMK BKN BKN070 VIS MIN 9999 WIND THR03 13004KT WIND THR21 16004KT BLU
TAF LIRS 220200Z 2203/2212 17008KT 9999 FEW030 
     TEMPO 2203/2206 BKN020 
     PROB40 
     TEMPO 2209/2212 RA
       
LIPS 220055Z 08003KT CAVOK 23/21 Q1011 RMK SKC VIS MIN 9999 WIND THR26 00000KT WIND THR08 08002KT BLU
TAF LIPS 220200Z 2203/2212 06005KT 9999 FEW030
       
LICA 220150Z 09003KT CAVOK 18/16 Q1014
TAF LICA 212300Z 2200/2224 VRB05KT CAVOK 
     BECMG 2208/2210 27012KT 
     BECMG 2216/2218 VRB05KT
       
TAF LICD 211700Z 2118/2218 15012KT CAVOK
       
LIBN 220155Z 11003KT CAVOK 21/18 Q1013 RMK SKC VIS MIN 9999 WIND THR14 13002KT WIND THR32 12002KT BLU
TAF LIMZ 211700Z 2118/2218 VRB05KT 9999 SCT040 SCT070
       
LIML 220220Z 00000KT 9999 FEW025 BKN070 21/18 Q1012 NOSIG
TAF LIML 212300Z 2200/2224 VRB05KT 9999 SCT060 
     TEMPO 2200/2202 4000 TSRA 
     TEMPO 2221/2224 4000 TSRA
       
LIMC 220220Z 01006KT CAVOK 20/17 Q1014 NOSIG
TAF LIMC 212300Z 2200/2306 VRB05KT 9999 SCT060 
     TEMPO 2200/2202 4000 TSRA 
     TEMPO 2220/2306 4000 TSRA
       
LIPO 220150Z 07004KT 9999 BKN050 22/18 Q1011
TAF LIPO 212300Z 2200/2224 27006KT 9999 SCT050 
     TEMPO 2200/2202 4000 TSRA 
     PROB40 
     TEMPO 2221/2224 4000 TSRA
       
LIEO 220220Z 04002KT 9999 FEW035 23/21 Q1012
TAF LIEO 212300Z 2200/2224 26008KT CAVOK 
     BECMG 2207/2209 06010KT 
     BECMG 2218/2220 VRB05KT
       
LICJ 220220Z 19010KT 160V220 CAVOK 30/07 Q1013
TAF LICJ 212300Z 2200/2224 20008KT CAVOK 
     BECMG 2208/2210 05012KT 
     BECMG 2218/2220 VRB05KT
       
LIBD 220220Z 22004KT CAVOK 27/08 Q1012
TAF LIBD 212300Z 2200/2224 VRB05KT CAVOK 
     BECMG 2208/2210 07010KT 
     BECMG 2216/2219 VRB05KT
       
TAF LICG 211700Z 2118/2203 18016KT CAVOK
       
LIMP 212050Z VRB02KT 9999 SCT050 23/19 Q1011
TAF LIMP 211700Z 2118/2218 33006KT 9999 SCT050 
     TEMPO 2118/2202 4000 TSRA
       
LIRQ 220220Z 09006KT CAVOK 21/16 Q1013
TAF LIRQ 212300Z 2200/2224 VRB05KT 9999 SCT035 
     BECMG 2208/2210 24010KT 
     BECMG 2218/2220 VRB05KT
       
LIRZ 212050Z 21007KT CAVOK 28/04 Q1014
TAF LIRZ 212300Z 2200/2224 VRB05KT 9999 FEW030 
     BECMG 2209/2212 24010KT 
     BECMG 2218/2220 VRB05KT
       
LIBP 220150Z AUTO VRB02KT 9999 NCD 22/20 Q1011
TAF LIBP 212300Z 2200/2224 VRB05KT CAVOK 
     BECMG 2208/2210 05010KT 
     BECMG 2216/2219 VRB05KT
       
TAF LIMS 211700Z 2118/2203 04005KT 9999 FEW040 
     TEMPO 2118/2124 5000 TSRA FEW020CB SCT050
       
LIRP 220145Z 10004KT 9999 SCT020 BKN035 23/22 Q1012 NOSIG
TAF LIRP 212300Z 2200/2224 12005KT 9999 SCT030 
     PROB30 
     TEMPO 2200/2212 5000 SHRA FEW020CB BKN030 
     BECMG 2210/2212 28010KT CAVOK
       
LIRE 220155Z 12006KT CAVOK 24/16 Q1014 RMK SKC VIS MIN 9999 WIND THR13 15005KT WIND THR31 12006KT BLU
TAF LIRE 220200Z 2203/2212 13008KT 9999 FEW050 
     BECMG 2208/2210 18012KT
       
LICR 212150Z 05003KT CAVOK 25/18 Q1014
TAF LICR 211700Z 2118/2218 VRB05KT CAVOK 
     BECMG 2208/2210 18012KT
       
LIPR 220215Z 16006KT CAVOK 24/17 Q1011
TAF LIPR 220200Z 2203/2212 26004KT CAVOK
       
LIPQ 220220Z AUTO 07003KT 9999 BKN120/// BKN140/// 22/18 Q1011
TAF LIPQ 212300Z 2200/2224 VRB05KT 9999 SCT030
       
LICZ 220155Z 28008KT CAVOK 25/15 Q1014 RMK SKC VIS MIN 9999 WIND THR28 26007KT WIND THR10 29006KT A2996 BLU
TAF LICZ 220200Z 2203/2212 27005KT CAVOK
       
LIMF 220220Z 30007KT CAVOK 18/14 Q1014
TAF LIMF 212300Z 2200/2224 VRB05KT 9999 SCT060 
     PROB40 
     TEMPO 2200/2202 4000 TSRA 
     PROB40 
     TEMPO 2218/2224 SHRA
       
LICT 220155Z 15011KT CAVOK 20/16 Q1014 RMK SKC VIS MIN 9999 WIND THR13 15008KT BLU
TAF LICT 220200Z 2203/2212 13010KT CAVOK
       
LIPH 212150Z 36004KT CAVOK 26/18 Q1011
TAF LIPH 212300Z 2200/2224 VRB05KT 9999 SCT040
       
LIPZ 220220Z 03005KT CAVOK 25/20 Q1011 NOSIG
TAF LIPZ 212300Z 2200/2306 03008KT CAVOK 
     BECMG 2209/2212 16010KT 
     BECMG 2218/2220 03007KT
       
LIPX 220220Z 26002KT 9999 FEW050 22/17 Q1012
TAF LIPX 220200Z 2203/2212 08005KT 9999 SCT050